Time;durP1;ratioP1;P1;durP2;ratioP2;P2;SDS_P1;SDS_P2;PMS_P1;PMS_P2;Temp;Humidity;BMP_temperature;BMP_pressure;BME280_temperature;BME280_humidity;BME280_pressure;Samples;Min_cycle;Max_cycle;Signal;HPM_P1;HPM_P2
2023/03/19 00:01:59;;;;;;;27.77;20.98;;;9.80;99.90;;;;;;5055722;28;20102;-19
2023/03/19 00:04:25;;;;;;;27.50;22.08;;;9.80;99.90;;;;;;5056845;28;20051;-19
2023/03/19 00:06:51;;;;;;;32.90;23.15;;;9.80;99.90;;;;;;5055593;28;20139;-19
2023/03/19 00:09:18;;;;;;;30.08;23.23;;;9.70;99.90;;;;;;5056770;28;20067;-19
2023/03/19 00:11:44;;;;;;;30.13;22.95;;;9.70;99.90;;;;;;5056644;28;20052;-19
2023/03/19 00:14:10;;;;;;;31.83;23.42;;;9.50;99.90;;;;;;5057223;28;20033;-19
2023/03/19 00:16:36;;;;;;;32.38;24.98;;;9.50;99.90;;;;;;5056568;28;20110;-19
2023/03/19 00:19:02;;;;;;;33.10;24.52;;;9.40;99.90;;;;;;5056602;28;20053;-19
2023/03/19 00:21:30;;;;;;;34.97;25.60;;;9.40;99.90;;;;;;5055335;28;20048;-19
2023/03/19 00:24:01;;;;;;;33.83;26.33;;;9.30;99.90;;;;;;5056382;28;20044;-19
2023/03/19 00:26:28;;;;;;;35.17;26.17;;;9.30;99.90;;;;;;5056487;28;20041;-19
2023/03/19 00:28:56;;;;;;;35.50;26.70;;;9.30;99.90;;;;;;5055474;28;20131;-19
2023/03/19 00:31:22;;;;;;;37.03;27.00;;;9.30;99.90;;;;;;5056879;28;20471;-19
2023/03/19 00:33:48;;;;;;;36.58;26.15;;;9.30;99.90;;;;;;5056261;28;20052;-19
2023/03/19 00:36:15;;;;;;;37.03;26.88;;;9.30;99.90;;;;;;5056363;28;20057;-19
2023/03/19 00:38:42;;;;;;;36.47;26.67;;;9.30;99.90;;;;;;5056236;28;20088;-19
2023/03/19 00:41:08;;;;;;;37.72;27.00;;;9.30;99.90;;;;;;5056757;28;20052;-19
2023/03/19 00:43:34;;;;;;;35.67;25.70;;;9.30;99.90;;;;;;5054627;28;20044;-19
2023/03/19 00:46:00;;;;;;;34.25;25.80;;;9.30;99.90;;;;;;5054933;28;20057;-19
2023/03/19 00:48:26;;;;;;;30.23;24.15;;;9.30;99.90;;;;;;5056025;28;20045;-19
2023/03/19 00:50:51;;;;;;;29.48;22.88;;;9.30;99.90;;;;;;5055952;28;20052;-19
2023/03/19 00:53:18;;;;;;;28.55;22.70;;;9.30;99.90;;;;;;5055933;28;20044;-19
2023/03/19 00:55:44;;;;;;;31.58;24.38;;;9.30;99.90;;;;;;5055896;28;20059;-19
2023/03/19 00:58:10;;;;;;;26.45;21.15;;;9.30;99.90;;;;;;5055809;28;20098;-19
2023/03/19 01:00:37;;;;;;;29.42;22.13;;;9.30;99.90;;;;;;5055790;28;20041;-19
2023/03/19 01:03:05;;;;;;;29.23;21.27;;;9.40;99.90;;;;;;5055617;28;20040;-19
2023/03/19 01:05:33;;;;;;;25.33;21.10;;;9.40;99.90;;;;;;5055716;28;20115;-19
2023/03/19 01:07:59;;;;;;;26.70;20.65;;;9.40;99.90;;;;;;5055643;28;20042;-19
2023/03/19 01:10:25;;;;;;;24.42;19.52;;;9.50;99.90;;;;;;5056439;28;20057;-19
2023/03/19 01:12:51;;;;;;;23.83;18.63;;;9.60;99.90;;;;;;5054534;28;20545;-19
2023/03/19 01:15:18;;;;;;;21.80;16.88;;;9.70;99.90;;;;;;5055480;28;20560;-19
2023/03/19 01:17:43;;;;;;;17.00;14.43;;;9.80;99.90;;;;;;5055450;28;20071;-19
2023/03/19 01:20:12;;;;;;;19.58;15.82;;;9.90;99.90;;;;;;5055449;28;20475;-19
2023/03/19 01:22:42;;;;;;;18.10;14.68;;;10.00;99.90;;;;;;5055374;28;20094;-19
2023/03/19 01:25:11;;;;;;;20.17;15.20;;;10.10;99.90;;;;;;5054180;28;20099;-19
2023/03/19 01:27:37;;;;;;;19.08;14.23;;;10.10;99.90;;;;;;5055261;28;20102;-19
2023/03/19 01:30:04;;;;;;;18.73;14.80;;;10.10;99.90;;;;;;5070713;28;20053;-19
2023/03/19 01:32:30;;;;;;;18.88;14.70;;;10.10;99.90;;;;;;5055199;28;20041;-19
2023/03/19 01:34:56;;;;;;;16.42;12.30;;;10.10;99.90;;;;;;5055132;28;20364;-19
2023/03/19 01:37:21;;;;;;;16.13;11.65;;;10.10;99.90;;;;;;5054998;28;20057;-19
2023/03/19 01:39:47;;;;;;;20.27;12.07;;;10.10;99.90;;;;;;5055001;28;20049;-19
2023/03/19 01:42:14;;;;;;;13.10;10.80;;;10.20;99.90;;;;;;5054016;28;20049;-19
2023/03/19 01:44:40;;;;;;;17.35;12.27;;;10.20;99.90;;;;;;5054595;28;20045;-19
2023/03/19 01:47:23;;;;;;;16.65;13.55;;;10.20;99.90;;;;;;5055472;28;20053;-19
2023/03/19 01:49:53;;;;;;;17.63;13.77;;;10.10;99.90;;;;;;5054970;28;20114;-19
2023/03/19 01:52:20;;;;;;;20.42;14.63;;;10.10;99.90;;;;;;5055152;28;20124;-19
2023/03/19 01:54:46;;;;;;;18.52;15.52;;;10.10;99.90;;;;;;5054747;28;20098;-19
2023/03/19 01:57:15;;;;;;;21.70;16.55;;;10.00;99.90;;;;;;5054595;28;20049;-19
2023/03/19 01:59:52;;;;;;;17.80;14.50;;;10.00;99.90;;;;;;5054907;28;20055;-19
2023/03/19 02:02:30;;;;;;;18.27;13.75;;;10.00;99.90;;;;;;5054584;28;20041;-19
2023/03/19 02:05:01;;;;;;;14.98;12.10;;;10.00;99.90;;;;;;5054578;28;20402;-19
2023/03/19 02:07:32;;;;;;;16.55;13.05;;;10.10;99.90;;;;;;5055415;28;20045;-19
2023/03/19 02:10:00;;;;;;;16.30;11.23;;;10.10;99.90;;;;;;5055284;28;20045;-19
2023/03/19 02:12:26;;;;;;;13.23;10.73;;;10.10;99.90;;;;;;5054328;28;20048;-19
2023/03/19 02:14:52;;;;;;;13.82;10.00;;;10.20;99.90;;;;;;5054411;28;20048;-19
2023/03/19 02:17:20;;;;;;;13.57;10.38;;;10.10;99.90;;;;;;5053160;28;20523;-19
2023/03/19 02:19:49;;;;;;;11.48;10.13;;;10.10;99.90;;;;;;5054292;28;20088;-19
2023/03/19 02:22:19;;;;;;;16.08;11.45;;;10.10;99.90;;;;;;5054521;28;20475;-19
2023/03/19 02:25:10;;;;;;;16.27;11.50;;;10.10;99.90;;;;;;5054184;28;20045;-19
2023/03/19 02:27:36;;;;;;;13.95;10.57;;;10.10;99.90;;;;;;5053489;28;20063;-20
2023/03/19 02:30:21;;;;;;;13.02;11.40;;;10.10;99.90;;;;;;5054163;28;20399;-20
2023/03/19 02:32:47;;;;;;;16.90;11.77;;;10.00;99.90;;;;;;5054075;28;20045;-19
2023/03/19 02:35:12;;;;;;;17.70;12.73;;;10.00;99.90;;;;;;5054107;28;20049;-19
2023/03/19 02:37:38;;;;;;;15.90;13.32;;;9.90;99.90;;;;;;5054614;28;20057;-19
2023/03/19 02:40:13;;;;;;;15.13;11.73;;;9.90;99.90;;;;;;5036757;28;20198;-19
2023/03/19 02:42:39;;;;;;;17.30;13.23;;;9.90;99.90;;;;;;5053556;28;20083;-19
2023/03/19 02:45:06;;;;;;;18.23;14.18;;;9.80;99.90;;;;;;5053896;28;20510;-19
2023/03/19 02:47:32;;;;;;;17.02;13.30;;;9.80;99.90;;;;;;5053813;28;20086;-19
2023/03/19 02:49:57;;;;;;;18.23;12.73;;;9.80;99.90;;;;;;5054625;28;20041;-19
2023/03/19 02:52:23;;;;;;;16.35;12.63;;;9.80;99.90;;;;;;5053362;28;20045;-19
2023/03/19 02:54:49;;;;;;;18.25;13.05;;;9.70;99.90;;;;;;5053761;28;20450;-19
2023/03/19 02:57:15;;;;;;;15.25;12.05;;;9.70;99.90;;;;;;5053696;28;20045;-19
2023/03/19 02:59:41;;;;;;;17.17;12.07;;;9.80;99.90;;;;;;5053676;28;20128;-19
2023/03/19 03:02:07;;;;;;;18.53;14.23;;;9.70;99.90;;;;;;5053637;28;20084;-19
2023/03/19 03:04:34;;;;;;;21.30;14.00;;;9.80;99.90;;;;;;5053609;28;20048;-19
2023/03/19 03:06:59;;;;;;;20.02;13.77;;;9.80;99.90;;;;;;5053912;28;20128;-19
2023/03/19 03:09:26;;;;;;;17.58;13.38;;;9.80;99.90;;;;;;5053575;28;20091;-19
2023/03/19 03:11:52;;;;;;;19.30;13.95;;;9.70;99.90;;;;;;5052484;28;20098;-19
2023/03/19 03:14:18;;;;;;;17.80;13.35;;;9.80;99.90;;;;;;5053533;28;20114;-19
2023/03/19 03:16:44;;;;;;;18.75;14.38;;;9.80;99.90;;;;;;5054311;28;20467;-19
2023/03/19 03:19:10;;;;;;;18.17;13.77;;;9.70;99.90;;;;;;5052771;28;20057;-20
2023/03/19 03:21:36;;;;;;;18.33;13.52;;;9.70;99.90;;;;;;5053452;28;20044;-19
2023/03/19 03:24:03;;;;;;;19.77;13.48;;;9.70;99.90;;;;;;5052763;28;20468;-19
2023/03/19 03:26:28;;;;;;;15.63;12.52;;;9.70;99.90;;;;;;5054234;28;20080;-19
2023/03/19 03:28:54;;;;;;;14.82;12.38;;;9.70;99.90;;;;;;5053385;28;20177;-19
2023/03/19 03:31:21;;;;;;;15.68;11.98;;;9.70;99.90;;;;;;5053908;28;20045;-19
2023/03/19 03:33:46;;;;;;;18.25;12.00;;;9.70;99.90;;;;;;5053376;28;20123;-19
2023/03/19 03:36:13;;;;;;;15.93;12.07;;;9.70;99.90;;;;;;5053248;28;20128;-19
2023/03/19 03:38:38;;;;;;;20.10;11.60;;;9.70;99.90;;;;;;5053357;28;20502;-19
2023/03/19 03:41:05;;;;;;;15.32;9.70;;;9.70;99.90;;;;;;5053283;28;20128;-19
2023/03/19 03:43:31;;;;;;;11.73;8.20;;;9.80;99.90;;;;;;5053180;28;20045;-19
2023/03/19 03:45:57;;;;;;;9.50;8.18;;;9.80;99.90;;;;;;5053238;28;20052;-19
2023/03/19 03:48:23;;;;;;;9.98;7.93;;;9.80;99.90;;;;;;5053230;28;20045;-20
2023/03/19 03:50:48;;;;;;;11.68;8.63;;;9.90;99.90;;;;;;5053169;28;20041;-19
2023/03/19 03:53:14;;;;;;;11.25;8.10;;;9.90;99.90;;;;;;5053161;28;20187;-19
2023/03/19 03:55:40;;;;;;;13.77;8.60;;;9.80;99.90;;;;;;5053442;28;20052;-19
2023/03/19 03:58:07;;;;;;;15.52;8.20;;;9.80;99.90;;;;;;5051957;28;20124;-19
2023/03/19 04:00:32;;;;;;;10.30;7.57;;;9.90;99.90;;;;;;5053103;28;20132;-19
2023/03/19 04:02:58;;;;;;;9.30;7.93;;;9.90;99.90;;;;;;5053234;28;20128;-20
2023/03/19 04:05:24;;;;;;;8.77;7.57;;;9.80;99.90;;;;;;5056040;28;20049;-19
2023/03/19 04:07:50;;;;;;;9.02;8.05;;;9.90;99.90;;;;;;5057216;28;20045;-19
2023/03/19 04:10:16;;;;;;;11.68;7.85;;;9.90;99.90;;;;;;5057590;28;20072;-19
2023/03/19 04:12:44;;;;;;;11.18;8.18;;;9.80;99.90;;;;;;5056635;28;20472;-19
2023/03/19 04:15:11;;;;;;;10.88;7.95;;;9.80;99.90;;;;;;5056661;28;20053;-19
2023/03/19 04:17:37;;;;;;;10.07;7.40;;;9.80;99.90;;;;;;5056617;28;20052;-19
2023/03/19 04:20:03;;;;;;;10.68;7.25;;;9.80;99.90;;;;;;5056592;28;20041;-19
2023/03/19 04:22:30;;;;;;;13.43;8.13;;;9.80;99.90;;;;;;5056470;28;20109;-19
2023/03/19 04:24:56;;;;;;;10.40;7.57;;;9.80;99.90;;;;;;5055770;28;20053;-19
2023/03/19 04:27:22;;;;;;;10.40;7.63;;;9.80;99.90;;;;;;5055311;28;20107;-19
2023/03/19 04:29:48;;;;;;;12.43;8.18;;;9.80;99.90;;;;;;5038607;28;20057;-19
2023/03/19 04:32:14;;;;;;;9.68;7.07;;;9.80;99.90;;;;;;5056338;28;20475;-19
2023/03/19 04:34:40;;;;;;;12.38;7.85;;;9.70;99.90;;;;;;5056338;28;20045;-19
2023/03/19 04:37:09;;;;;;;11.27;7.95;;;9.80;99.90;;;;;;5055704;28;20065;-19
2023/03/19 04:39:35;;;;;;;11.65;7.80;;;9.80;99.90;;;;;;5056273;28;20285;-19
2023/03/19 04:42:02;;;;;;;9.63;7.43;;;9.80;99.90;;;;;;5056118;28;20483;-19
2023/03/19 04:44:28;;;;;;;9.38;7.85;;;9.80;99.90;;;;;;5056884;28;20427;-19
2023/03/19 04:46:54;;;;;;;10.52;9.05;;;9.80;99.90;;;;;;5056033;28;20128;-19
2023/03/19 04:49:20;;;;;;;10.25;8.10;;;9.70;99.90;;;;;;5054834;28;20138;-19
2023/03/19 04:51:45;;;;;;;12.20;9.30;;;9.70;99.90;;;;;;5056054;28;20084;-20
2023/03/19 04:54:11;;;;;;;13.80;8.52;;;9.70;99.90;;;;;;5055924;28;20044;-19
2023/03/19 04:56:37;;;;;;;10.50;8.30;;;9.70;99.90;;;;;;5055916;28;20134;-19
2023/03/19 04:59:03;;;;;;;11.45;9.07;;;9.70;99.90;;;;;;5056388;28;20080;-19
2023/03/19 05:01:30;;;;;;;15.20;9.77;;;9.70;99.90;;;;;;5054870;28;20048;-19
2023/03/19 05:03:55;;;;;;;12.55;9.40;;;9.70;99.90;;;;;;5055676;28;20541;-19
2023/03/19 05:06:21;;;;;;;14.30;9.07;;;9.60;99.90;;;;;;5055707;28;20088;-19
2023/03/19 05:08:47;;;;;;;12.57;8.85;;;9.50;99.90;;;;;;5056474;28;20487;-19
2023/03/19 05:11:13;;;;;;;12.77;9.35;;;9.30;99.90;;;;;;5054360;28;20041;-19
2023/03/19 05:13:39;;;;;;;12.20;9.43;;;9.20;99.90;;;;;;5055612;28;20041;-19
2023/03/19 05:16:05;;;;;;;14.65;9.50;;;9.20;99.90;;;;;;5055148;28;20049;-19
2023/03/19 05:18:32;;;;;;;16.15;9.50;;;9.10;99.90;;;;;;5055468;28;20052;-19
2023/03/19 05:20:58;;;;;;;13.07;8.70;;;9.00;99.90;;;;;;5055454;28;20052;-19
2023/03/19 05:23:24;;;;;;;11.30;9.80;;;9.00;99.90;;;;;;5055329;28;20048;-19
2023/03/19 05:25:49;;;;;;;12.68;9.75;;;8.90;99.90;;;;;;5055398;28;20098;-19
2023/03/19 05:28:15;;;;;;;14.45;10.35;;;8.80;99.90;;;;;;5055324;28;20056;-19
2023/03/19 05:30:42;;;;;;;15.20;10.50;;;8.80;99.90;;;;;;5055482;28;20443;-19
2023/03/19 05:33:08;;;;;;;16.05;11.48;;;8.70;99.90;;;;;;5055285;28;20049;-19
2023/03/19 05:35:35;;;;;;;17.33;11.45;;;8.60;99.90;;;;;;5055521;28;20076;-19
2023/03/19 05:38:01;;;;;;;15.30;11.40;;;8.50;99.90;;;;;;5055173;28;20044;-19
2023/03/19 05:40:27;;;;;;;19.58;12.82;;;8.40;99.90;;;;;;5055879;28;20041;-19
2023/03/19 05:42:53;;;;;;;18.77;13.38;;;8.40;99.90;;;;;;5054937;28;20475;-19
2023/03/19 05:45:20;;;;;;;18.80;14.02;;;8.20;99.90;;;;;;5055766;28;20049;-19
2023/03/19 05:47:50;;;;;;;22.88;14.32;;;8.10;99.90;;;;;;5054253;28;20128;-19
2023/03/19 05:50:17;;;;;;;31.17;15.77;;;8.00;99.90;;;;;;5055405;28;20403;-19
2023/03/19 05:52:43;;;;;;;21.65;14.63;;;7.80;99.90;;;;;;5054838;28;20041;-20
2023/03/19 05:55:09;;;;;;;23.50;15.10;;;7.60;99.90;;;;;;5054800;28;20047;-19
2023/03/19 05:57:35;;;;;;;24.25;14.93;;;7.50;99.90;;;;;;5054804;28;20495;-19
2023/03/19 06:00:02;;;;;;;24.75;15.43;;;7.40;99.90;;;;;;5055544;28;20049;-19
2023/03/19 06:02:27;;;;;;;28.75;16.75;;;7.30;99.90;;;;;;5054642;28;20056;-19
2023/03/19 06:04:53;;;;;;;34.00;17.67;;;7.20;99.90;;;;;;5053422;28;20041;-19
2023/03/19 06:07:19;;;;;;;30.27;17.88;;;7.20;99.90;;;;;;5054563;28;20517;-19
2023/03/19 06:09:45;;;;;;;32.47;18.33;;;7.20;99.90;;;;;;5055044;28;20395;-19
2023/03/19 06:12:11;;;;;;;39.00;20.17;;;7.20;99.90;;;;;;5053252;28;20045;-19
2023/03/19 06:14:36;;;;;;;38.03;20.00;;;7.10;99.90;;;;;;5054134;28;20048;-19
2023/03/19 06:17:02;;;;;;;35.92;18.98;;;7.10;99.90;;;;;;5054330;28;20045;-19
2023/03/19 06:19:28;;;;;;;36.92;19.52;;;7.00;99.90;;;;;;5054330;28;20041;-19
2023/03/19 06:21:54;;;;;;;37.70;20.08;;;7.00;99.90;;;;;;5054839;28;20043;-19
2023/03/19 06:24:20;;;;;;;34.42;19.20;;;7.00;99.90;;;;;;5054135;28;20037;-19
2023/03/19 06:26:46;;;;;;;36.20;18.83;;;7.10;99.90;;;;;;5054351;28;20110;-19
2023/03/19 06:29:12;;;;;;;35.50;17.73;;;7.10;99.90;;;;;;5054157;28;20510;-19
2023/03/19 06:31:40;;;;;;;33.65;18.27;;;7.00;99.90;;;;;;5053127;28;20087;-19
2023/03/19 06:34:06;;;;;;;34.05;17.17;;;7.00;99.90;;;;;;5054036;28;20037;-19
2023/03/19 06:36:32;;;;;;;33.72;17.85;;;7.00;99.90;;;;;;5054023;28;20061;-19
2023/03/19 06:38:58;;;;;;;32.47;18.08;;;7.00;99.90;;;;;;5054608;28;20071;-19
2023/03/19 06:41:24;;;;;;;30.17;16.95;;;7.10;99.90;;;;;;5053607;28;20041;-19
2023/03/19 06:43:50;;;;;;;33.15;18.05;;;7.10;99.90;;;;;;5054421;28;20396;-19
2023/03/19 06:46:16;;;;;;;34.72;19.23;;;7.20;99.90;;;;;;5053921;28;20083;-19
2023/03/19 06:48:41;;;;;;;35.17;20.15;;;7.30;99.90;;;;;;5052861;28;20080;-19
2023/03/19 06:51:07;;;;;;;34.65;18.90;;;7.30;99.90;;;;;;5052678;28;20479;-19
2023/03/19 06:53:33;;;;;;;36.17;21.25;;;7.40;99.90;;;;;;5053774;28;20403;-19
2023/03/19 06:55:59;;;;;;;39.30;21.52;;;7.60;99.90;;;;;;5053451;28;20399;-19
2023/03/19 06:58:25;;;;;;;36.15;21.05;;;7.90;99.90;;;;;;5054002;28;20045;-19
2023/03/19 07:00:51;;;;;;;33.45;19.48;;;8.10;99.90;;;;;;5053676;28;20061;-19
2023/03/19 07:03:17;;;;;;;33.47;19.08;;;8.30;99.90;;;;;;5053844;28;20052;-19
2023/03/19 07:05:43;;;;;;;29.02;18.88;;;8.50;99.90;;;;;;5053633;28;20052;-19
2023/03/19 07:08:11;;;;;;;27.75;17.92;;;8.70;99.90;;;;;;5053594;28;20455;-19
2023/03/19 07:10:38;;;;;;;28.23;18.02;;;8.80;99.90;;;;;;5053578;28;20045;-19
2023/03/19 07:13:05;;;;;;;26.85;17.17;;;8.90;99.90;;;;;;5053525;28;20045;-19
2023/03/19 07:15:31;;;;;;;23.85;15.35;;;8.90;99.90;;;;;;5053544;28;20132;-19
2023/03/19 07:17:56;;;;;;;24.77;16.30;;;9.00;99.90;;;;;;5054072;28;20084;-20
2023/03/19 07:20:22;;;;;;;24.13;15.07;;;9.10;99.90;;;;;;5053389;28;20147;-19
2023/03/19 07:22:52;;;;;;;21.50;15.88;;;9.10;99.90;;;;;;5052633;28;20045;-19
2023/03/19 07:25:18;;;;;;;23.42;15.40;;;9.20;99.90;;;;;;5053458;28;20045;-19
2023/03/19 07:27:44;;;;;;;23.13;15.07;;;9.20;99.90;;;;;;5053936;28;20051;-19
2023/03/19 07:30:11;;;;;;;21.65;15.18;;;9.20;99.90;;;;;;5053401;28;20048;-19
2023/03/19 07:32:37;;;;;;;24.33;16.02;;;9.30;99.90;;;;;;5052198;28;20123;-19
2023/03/19 07:35:05;;;;;;;21.52;15.27;;;9.40;99.90;;;;;;5053032;28;20483;-19
2023/03/19 07:37:31;;;;;;;21.38;15.05;;;9.40;99.90;;;;;;5053588;28;20085;-19
2023/03/19 07:39:57;;;;;;;21.15;15.38;;;9.50;99.90;;;;;;5057591;28;20394;-19
2023/03/19 07:42:23;;;;;;;22.48;16.23;;;9.60;99.90;;;;;;5057292;28;20048;-19
2023/03/19 07:44:49;;;;;;;21.98;15.63;;;9.70;99.90;;;;;;5057850;28;20064;-19
2023/03/19 07:47:15;;;;;;;22.10;16.70;;;9.80;99.90;;;;;;5039691;28;20567;-19
2023/03/19 07:49:40;;;;;;;21.40;16.90;;;9.80;99.90;;;;;;5057184;28;20041;-20
2023/03/19 07:52:06;;;;;;;20.73;16.23;;;10.10;99.90;;;;;;5055938;28;20052;-20
2023/03/19 07:54:32;;;;;;;22.52;17.60;;;10.20;99.90;;;;;;5057084;28;20049;-20
2023/03/19 07:56:58;;;;;;;22.42;16.77;;;10.20;99.90;;;;;;5057077;28;20053;-20
2023/03/19 07:59:24;;;;;;;25.33;17.05;;;10.20;99.90;;;;;;5057789;28;20360;-20
2023/03/19 08:01:50;;;;;;;24.00;15.68;;;10.30;99.90;;;;;;5056971;28;20044;-20
2023/03/19 08:04:16;;;;;;;20.75;15.90;;;10.30;99.90;;;;;;5056843;28;20123;-20
2023/03/19 08:06:42;;;;;;;22.05;14.15;;;10.30;99.90;;;;;;5055690;28;20045;-20
2023/03/19 08:09:08;;;;;;;20.27;13.60;;;10.40;99.90;;;;;;5055873;28;20051;-20
2023/03/19 08:11:35;;;;;;;20.48;15.15;;;10.50;99.90;;;;;;5056751;28;20123;-20
2023/03/19 08:14:02;;;;;;;22.38;16.08;;;10.50;99.90;;;;;;5056731;28;20047;-20
2023/03/19 08:16:28;;;;;;;26.02;16.48;;;10.50;99.90;;;;;;5055511;28;20091;-20
2023/03/19 08:18:54;;;;;;;22.67;15.25;;;10.60;99.90;;;;;;5056903;28;20448;-20
2023/03/19 08:21:20;;;;;;;25.52;17.35;;;10.60;99.90;;;;;;5056839;28;20049;-20
2023/03/19 08:23:46;;;;;;;24.67;18.15;;;10.60;99.90;;;;;;5057046;28;20045;-20
2023/03/19 08:26:11;;;;;;;28.42;19.85;;;10.70;99.90;;;;;;5055242;28;20041;-20
2023/03/19 08:28:37;;;;;;;26.98;18.63;;;10.80;99.90;;;;;;5056425;28;20045;-20
2023/03/19 08:31:09;;;;;;;21.77;16.23;;;10.80;99.90;;;;;;5056869;28;20107;-21
2023/03/19 08:33:35;;;;;;;21.65;18.63;;;10.70;99.90;;;;;;5056206;28;20048;-20
2023/03/19 08:36:12;;;;;;;24.10;19.30;;;10.70;99.90;;;;;;5055912;28;20556;-20
2023/03/19 08:38:40;;;;;;;24.38;18.25;;;10.80;99.90;;;;;;5056978;28;20053;-20
2023/03/19 08:41:07;;;;;;;21.23;16.40;;;10.90;99.90;;;;;;5056062;28;20049;-20
2023/03/19 08:43:35;;;;;;;21.00;17.13;;;10.80;99.90;;;;;;5056174;28;20041;-20
2023/03/19 08:46:01;;;;;;;23.60;17.75;;;10.60;99.90;;;;;;5054853;28;20348;-21
2023/03/19 08:48:27;;;;;;;26.48;20.20;;;10.60;99.90;;;;;;5056000;28;20055;-21
2023/03/19 08:50:58;;;;;;;23.05;16.45;;;10.70;99.90;;;;;;5055473;28;20045;-21
2023/03/19 08:53:24;;;;;;;28.08;19.40;;;10.70;99.90;;;;;;5055617;28;20055;-21
2023/03/19 08:55:55;;;;;;;23.95;18.20;;;10.60;99.90;;;;;;5056356;28;20132;-21
2023/03/19 08:58:21;;;;;;;29.90;20.85;;;10.40;99.90;;;;;;5055871;28;20475;-21
2023/03/19 09:00:48;;;;;;;27.65;22.02;;;10.40;99.90;;;;;;5056224;28;20041;-21
2023/03/19 09:03:14;;;;;;;25.85;19.85;;;10.30;99.90;;;;;;5054582;28;20399;-20
2023/03/19 09:05:40;;;;;;;21.70;15.32;;;10.30;99.90;;;;;;5055755;28;20503;-20
2023/03/19 09:08:06;;;;;;;29.40;22.45;;;10.20;99.90;;;;;;5054556;28;20131;-20
2023/03/19 09:10:32;;;;;;;25.98;20.02;;;10.30;99.90;;;;;;5055337;28;20044;-21
2023/03/19 09:12:58;;;;;;;29.48;22.88;;;10.30;99.90;;;;;;5055120;28;20367;-21
2023/03/19 09:15:25;;;;;;;29.08;18.05;;;10.30;99.90;;;;;;5054954;28;20048;-21
2023/03/19 09:17:51;;;;;;;25.83;20.52;;;10.30;99.90;;;;;;5054612;28;20056;-20
2023/03/19 09:20:17;;;;;;;28.60;17.27;;;10.40;99.90;;;;;;5055688;28;20398;-21
2023/03/19 09:22:43;;;;;;;25.80;19.15;;;10.50;99.90;;;;;;5056033;28;20137;-20
2023/03/19 09:25:10;;;;;;;26.88;19.27;;;10.60;99.90;;;;;;5055328;28;20059;-21
2023/03/19 09:27:36;;;;;;;22.58;18.15;;;10.70;99.90;;;;;;5054231;28;20107;-20
2023/03/19 09:30:02;;;;;;;24.85;18.92;;;10.80;99.90;;;;;;5054175;28;20045;-21
2023/03/19 09:32:28;;;;;;;23.77;17.33;;;10.70;99.90;;;;;;5055243;28;20060;-20
2023/03/19 09:34:54;;;;;;;24.33;18.35;;;10.80;99.90;;;;;;5055297;28;20049;-21
2023/03/19 09:37:20;;;;;;;29.60;21.65;;;10.90;99.90;;;;;;5055525;28;20122;-21
2023/03/19 09:39:46;;;;;;;28.13;18.30;;;11.00;99.90;;;;;;5053964;28;20106;-20
2023/03/19 09:42:43;;;;;;;27.95;20.90;;;10.90;99.90;;;;;;5054774;28;20123;-21
2023/03/19 09:45:15;;;;;;;25.35;19.50;;;10.80;99.90;;;;;;5055069;28;20099;-21
2023/03/19 09:47:42;;;;;;;27.08;20.85;;;10.70;99.90;;;;;;5055524;28;20049;-20
2023/03/19 09:50:23;;;;;;;28.05;21.67;;;10.70;99.90;;;;;;5054893;28;20084;-20
2023/03/19 09:53:06;;;;;;;28.83;21.17;;;10.70;99.90;;;;;;5054918;28;20052;-21
2023/03/19 09:55:48;;;;;;;31.13;22.77;;;10.60;99.90;;;;;;5055491;28;20106;-21
2023/03/19 09:58:20;;;;;;;31.20;20.70;;;10.60;99.90;;;;;;5054754;28;20052;-21
2023/03/19 10:00:50;;;;;;;27.47;21.47;;;10.60;99.90;;;;;;5053718;28;20115;-20
2023/03/19 10:03:34;;;;;;;28.08;20.95;;;10.50;99.90;;;;;;5053844;28;20306;-20
2023/03/19 10:06:09;;;;;;;30.80;21.85;;;10.50;99.90;;;;;;5054565;28;20106;-20
2023/03/19 10:08:53;;;;;;;30.40;21.00;;;10.50;99.90;;;;;;5054213;28;20044;-20
2023/03/19 10:11:32;;;;;;;32.03;21.77;;;10.40;99.90;;;;;;5054295;28;20049;-20
2023/03/19 10:14:09;;;;;;;31.45;21.88;;;10.40;99.90;;;;;;5055243;28;20045;-20
2023/03/19 10:16:38;;;;;;;31.20;20.63;;;10.40;99.90;;;;;;5054304;28;20398;-20
2023/03/19 10:19:05;;;;;;;34.90;24.75;;;10.30;99.90;;;;;;5054348;28;20049;-20
2023/03/19 10:21:43;;;;;;;31.02;23.40;;;10.40;99.90;;;;;;5054319;28;20052;-21
2023/03/19 10:24:36;;;;;;;33.72;24.00;;;10.40;99.90;;;;;;5054475;28;20037;-20
2023/03/19 10:27:16;;;;;;;33.25;22.48;;;10.50;99.90;;;;;;5054238;28;20137;-20
2023/03/19 10:29:42;;;;;;;30.27;21.65;;;10.60;99.90;;;;;;5053229;28;20056;-20
2023/03/19 10:32:23;;;;;;;29.98;22.45;;;10.60;99.90;;;;;;5052855;28;20056;-20
2023/03/19 10:34:52;;;;;;;31.42;21.98;;;10.50;99.90;;;;;;5054187;28;20098;-20
2023/03/19 10:37:26;;;;;;;21.58;15.77;;;10.50;99.90;;;;;;5053776;28;20053;-20
2023/03/19 10:39:58;;;;;;;24.02;18.20;;;10.60;99.90;;;;;;5054329;28;20115;-21
2023/03/19 10:42:38;;;;;;;24.63;18.10;;;10.60;99.90;;;;;;5052911;28;20133;-20
2023/03/19 10:45:31;;;;;;;27.70;19.60;;;10.60;99.90;;;;;;5036790;28;20052;-20
2023/03/19 10:47:59;;;;;;;28.15;18.02;;;10.30;99.90;;;;;;5054713;28;20049;-20
2023/03/19 10:50:28;;;;;;;34.25;23.27;;;9.90;99.90;;;;;;5052829;28;20057;-20
2023/03/19 10:53:13;;;;;;;33.25;21.90;;;9.90;99.90;;;;;;5053751;28;20041;-20
2023/03/19 10:55:52;;;;;;;37.80;23.77;;;9.70;99.90;;;;;;5053848;28;20498;-20
2023/03/19 10:58:22;;;;;;;30.42;19.25;;;9.70;99.90;;;;;;5054565;28;20049;-20
2023/03/19 11:00:54;;;;;;;36.60;22.67;;;9.60;99.90;;;;;;5052748;28;20144;-20
2023/03/19 11:03:57;;;;;;;40.83;23.83;;;9.60;99.90;;;;;;5053724;28;20119;-20
2023/03/19 11:06:36;;;;;;;39.03;24.10;;;9.60;99.90;;;;;;5052712;28;20063;-20
2023/03/19 11:09:15;;;;;;;36.60;22.02;;;9.70;99.90;;;;;;5053629;28;20041;-20
2023/03/19 11:11:47;;;;;;;42.03;26.45;;;9.70;99.90;;;;;;5053502;28;20049;-20
2023/03/19 11:14:35;;;;;;;38.88;19.75;;;9.80;99.90;;;;;;5053178;28;20479;-20
2023/03/19 11:17:19;;;;;;;40.60;23.83;;;9.70;99.90;;;;;;5052267;28;20107;-20
2023/03/19 11:19:56;;;;;;;39.40;22.95;;;9.60;99.90;;;;;;5053557;28;20045;-20
2023/03/19 11:22:31;;;;;;;43.05;24.23;;;9.60;99.90;;;;;;5053288;28;20403;-20
2023/03/19 11:25:19;;;;;;;42.15;23.63;;;9.60;99.90;;;;;;5053261;28;20487;-20
2023/03/19 11:27:59;;;;;;;42.08;24.52;;;9.70;99.90;;;;;;5053464;28;20510;-20
2023/03/19 11:30:32;;;;;;;37.83;22.88;;;9.80;99.90;;;;;;5054034;28;20057;-20
2023/03/19 11:33:15;;;;;;;36.85;22.40;;;9.80;99.90;;;;;;5053435;28;20049;-20
2023/03/19 11:36:07;;;;;;;39.15;23.77;;;9.70;99.90;;;;;;5053096;28;20037;-20
2023/03/19 11:38:52;;;;;;;38.70;21.77;;;9.90;99.90;;;;;;5053356;28;20092;-20
2023/03/19 11:41:46;;;;;;;34.70;20.83;;;9.90;99.90;;;;;;5052946;28;20049;-20
2023/03/19 11:44:21;;;;;;;34.88;21.48;;;9.80;99.90;;;;;;5053339;28;20049;-20
2023/03/19 11:47:09;;;;;;;36.97;21.05;;;9.70;99.90;;;;;;5052308;28;20391;-20
2023/03/19 11:49:55;;;;;;;37.95;22.92;;;9.60;99.90;;;;;;5053231;28;20106;-20
2023/03/19 11:52:27;;;;;;;36.92;20.48;;;9.70;99.90;;;;;;5053501;28;20045;-20
2023/03/19 11:55:10;;;;;;;38.15;21.45;;;9.60;99.90;;;;;;5053492;28;20049;-20
2023/03/19 11:57:57;;;;;;;34.08;18.98;;;9.70;99.90;;;;;;5053791;28;20136;-19
2023/03/19 12:00:46;;;;;;;35.20;20.13;;;9.70;99.90;;;;;;5051826;28;20045;-20
2023/03/19 12:03:21;;;;;;;38.38;20.67;;;9.80;99.90;;;;;;5053072;28;20037;-20
2023/03/19 12:05:52;;;;;;;40.78;22.15;;;9.80;99.90;;;;;;5053142;28;20053;-20
2023/03/19 12:09:05;;;;;;;36.15;21.83;;;9.80;99.90;;;;;;5053412;28;20060;-20
2023/03/19 12:11:51;;;;;;;37.60;20.07;;;9.90;99.90;;;;;;5051271;28;20104;-20
2023/03/19 12:14:26;;;;;;;37.80;21.08;;;9.90;99.90;;;;;;5052984;28;20083;-20
2023/03/19 12:17:12;;;;;;;35.33;21.45;;;9.90;99.90;;;;;;5052276;28;20064;-20
2023/03/19 12:19:56;;;;;;;42.95;22.25;;;9.90;99.90;;;;;;5052632;28;20394;-19
2023/03/19 12:22:31;;;;;;;40.75;20.55;;;9.80;99.90;;;;;;5052890;28;20138;-20
2023/03/19 12:25:09;;;;;;;44.38;24.02;;;9.80;99.90;;;;;;5053541;28;20510;-20
2023/03/19 12:27:53;;;;;;;46.63;23.08;;;9.70;99.90;;;;;;5056799;28;20053;-20
2023/03/19 12:30:21;;;;;;;44.15;23.60;;;9.70;99.90;;;;;;5056777;28;20471;-20
2023/03/19 12:33:14;;;;;;;42.67;22.55;;;9.70;99.90;;;;;;5056893;28;20384;-20
2023/03/19 12:35:42;;;;;;;39.03;21.87;;;9.70;99.90;;;;;;5056150;28;20049;-19
2023/03/19 12:38:26;;;;;;;45.00;21.88;;;9.90;99.90;;;;;;5056836;28;20080;-20
2023/03/19 12:41:10;;;;;;;46.67;23.55;;;9.90;99.90;;;;;;5056571;28;20056;-20
2023/03/19 12:43:41;;;;;;;46.00;22.50;;;9.90;99.90;;;;;;5056039;28;20049;-20
2023/03/19 12:46:11;;;;;;;40.90;20.50;;;9.90;99.90;;;;;;5054688;28;20511;-20
2023/03/19 12:48:51;;;;;;;31.65;16.95;;;9.90;99.90;;;;;;5056019;28;20149;-20